Time;durP1;ratioP1;P1;durP2;ratioP2;P2;SDS_P1;SDS_P2;PMS_P1;PMS_P2;Temp;Humidity;BMP_temperature;BMP_pressure;BME280_temperature;BME280_humidity;BME280_pressure;Samples;Min_cycle;Max_cycle;Signal;HPM_P1;HPM_P2
2024/03/05 00:00:35;;;;;;;78.60;34.38;;;8.40;99.90;;;;;;5026507;28;20088;-47
2024/03/05 00:03:03;;;;;;;75.72;34.53;;;8.40;99.90;;;;;;5028005;28;20060;-48
2024/03/05 00:05:30;;;;;;;79.35;35.00;;;8.40;99.90;;;;;;5029219;28;20049;-52
2024/03/05 00:07:57;;;;;;;84.68;35.80;;;8.40;99.90;;;;;;5027388;28;20413;-51
2024/03/05 00:10:24;;;;;;;81.95;36.35;;;8.30;99.90;;;;;;5028371;28;20041;-49
2024/03/05 00:12:51;;;;;;;89.20;37.67;;;8.30;99.90;;;;;;5025246;28;20045;-48
2024/03/05 00:15:18;;;;;;;84.30;36.50;;;8.20;99.90;;;;;;5028897;28;20144;-49
2024/03/05 00:17:45;;;;;;;81.35;36.65;;;8.20;99.90;;;;;;5026748;28;20141;-53
2024/03/05 00:20:17;;;;;;;83.35;36.97;;;8.20;99.90;;;;;;5025938;28;20037;-50
2024/03/05 00:22:46;;;;;;;76.32;33.88;;;8.20;99.90;;;;;;5027560;28;20132;-47
2024/03/05 00:25:14;;;;;;;80.35;36.10;;;8.20;99.90;;;;;;5027636;28;20043;-45
2024/03/05 00:27:41;;;;;;;79.43;36.10;;;8.20;99.90;;;;;;5025702;28;20068;-51
2024/03/05 00:30:10;;;;;;;80.82;36.30;;;8.20;99.90;;;;;;5027550;28;20081;-49
2024/03/05 00:32:39;;;;;;;76.63;35.67;;;8.10;99.90;;;;;;5023113;28;20045;-50
2024/03/05 00:35:08;;;;;;;74.03;34.78;;;8.20;99.90;;;;;;5029714;28;20597;-52
2024/03/05 00:37:35;;;;;;;84.70;36.45;;;8.20;99.90;;;;;;5025952;28;20045;-51
2024/03/05 00:40:07;;;;;;;78.57;34.72;;;8.20;99.90;;;;;;5027432;28;20053;-52
2024/03/05 00:42:34;;;;;;;75.65;34.33;;;8.20;99.90;;;;;;5028185;28;20045;-50
2024/03/05 00:45:01;;;;;;;77.35;35.08;;;8.20;99.90;;;;;;5026735;28;20132;-49
2024/03/05 00:47:29;;;;;;;77.03;34.53;;;8.20;99.90;;;;;;5022947;28;20037;-47
2024/03/05 00:49:57;;;;;;;74.95;35.00;;;8.20;99.90;;;;;;5028137;28;20064;-46
2024/03/05 00:52:24;;;;;;;83.50;36.22;;;8.20;99.90;;;;;;5027130;28;20133;-49
2024/03/05 00:54:51;;;;;;;77.35;37.05;;;8.20;99.90;;;;;;5026412;28;20104;-52
2024/03/05 00:57:18;;;;;;;88.32;37.33;;;8.30;99.90;;;;;;5027622;28;20120;-48
2024/03/05 00:59:45;;;;;;;82.20;35.30;;;8.20;99.90;;;;;;5026722;28;20045;-53
2024/03/05 01:02:15;;;;;;;73.28;35.03;;;8.20;99.90;;;;;;5026513;28;20134;-50
2024/03/05 01:04:42;;;;;;;82.22;37.03;;;8.20;99.90;;;;;;5024482;28;20041;-50
2024/03/05 01:07:10;;;;;;;82.93;37.22;;;8.30;99.90;;;;;;5026355;28;20061;-52
2024/03/05 01:09:37;;;;;;;82.32;36.92;;;8.30;99.90;;;;;;5025028;28;20080;-52
2024/03/05 01:12:07;;;;;;;82.05;35.92;;;8.30;99.90;;;;;;5026340;28;20049;-48
2024/03/05 01:14:34;;;;;;;72.70;34.50;;;8.30;99.90;;;;;;5026182;28;20045;-53
2024/03/05 01:17:04;;;;;;;80.97;35.70;;;8.30;99.90;;;;;;5028138;28;20629;-47
2024/03/05 01:19:32;;;;;;;76.03;34.05;;;8.30;99.90;;;;;;5024296;28;20041;-51
2024/03/05 01:21:59;;;;;;;77.30;34.45;;;8.30;99.90;;;;;;5025924;28;20065;-51
2024/03/05 01:24:27;;;;;;;76.97;34.08;;;8.20;99.90;;;;;;5025141;28;20037;-48
2024/03/05 01:26:54;;;;;;;79.40;35.70;;;8.20;99.90;;;;;;5021946;28;20057;-55
2024/03/05 01:29:21;;;;;;;79.13;36.70;;;8.20;99.90;;;;;;5025292;28;20037;-46
2024/03/05 01:31:56;;;;;;;69.70;33.45;;;8.20;99.90;;;;;;5005120;28;20053;-49
2024/03/05 01:34:24;;;;;;;80.57;35.60;;;8.30;99.90;;;;;;5025793;28;20104;-51
2024/03/05 01:36:56;;;;;;;73.32;34.25;;;8.30;99.90;;;;;;5024988;28;20049;-50
2024/03/05 01:39:25;;;;;;;76.68;35.85;;;8.30;99.90;;;;;;5026981;28;20091;-48
2024/03/05 01:41:53;;;;;;;77.18;34.15;;;8.30;99.90;;;;;;5025822;28;20049;-50
2024/03/05 01:44:20;;;;;;;77.00;33.95;;;8.20;99.90;;;;;;5026734;28;20053;-48
2024/03/05 01:46:48;;;;;;;74.68;33.92;;;8.30;99.90;;;;;;5026208;28;20055;-47
2024/03/05 01:49:16;;;;;;;74.40;33.55;;;8.30;99.90;;;;;;5026150;28;20037;-50
2024/03/05 01:51:44;;;;;;;74.50;31.58;;;8.20;99.90;;;;;;5022970;28;20130;-50
2024/03/05 01:54:14;;;;;;;78.65;35.47;;;8.20;99.90;;;;;;5026084;28;20080;-51
2024/03/05 01:56:47;;;;;;;75.72;33.10;;;8.30;99.90;;;;;;5026367;28;20571;-50
2024/03/05 01:59:15;;;;;;;80.45;35.40;;;8.20;99.90;;;;;;5026333;28;20128;-51
2024/03/05 02:01:43;;;;;;;81.63;33.97;;;8.20;99.90;;;;;;5026191;28;20460;-46
2024/03/05 02:04:12;;;;;;;76.43;34.17;;;8.20;99.90;;;;;;5026360;28;20522;-48
2024/03/05 02:06:42;;;;;;;75.03;33.47;;;8.20;99.90;;;;;;5019752;28;20530;-47
2024/03/05 02:09:13;;;;;;;76.90;33.10;;;8.20;99.90;;;;;;5025386;28;20570;-48
2024/03/05 02:11:44;;;;;;;70.77;33.20;;;8.20;99.90;;;;;;5023402;28;20399;-49
2024/03/05 02:14:26;;;;;;;72.03;32.10;;;8.10;99.90;;;;;;5025737;28;20340;-52
2024/03/05 02:16:58;;;;;;;75.00;33.83;;;8.10;99.90;;;;;;5029290;28;20164;-48
2024/03/05 02:19:25;;;;;;;78.00;33.28;;;8.10;99.90;;;;;;5019770;28;20057;-48
2024/03/05 02:22:03;;;;;;;77.78;34.03;;;8.10;99.90;;;;;;5024329;28;20164;-47
2024/03/05 02:24:30;;;;;;;78.18;33.70;;;8.00;99.90;;;;;;5024185;28;20046;-48
2024/03/05 02:27:02;;;;;;;75.47;33.08;;;8.10;99.90;;;;;;5022730;28;20044;-48
2024/03/05 02:29:31;;;;;;;79.13;33.65;;;8.00;99.90;;;;;;5026349;28;20457;-47
2024/03/05 02:31:58;;;;;;;71.43;32.83;;;8.10;99.90;;;;;;5025305;28;20569;-50
2024/03/05 02:34:25;;;;;;;75.10;32.83;;;8.00;99.90;;;;;;5020280;28;20038;-49
2024/03/05 02:36:53;;;;;;;81.78;34.42;;;8.00;99.90;;;;;;5023507;28;20080;-47
2024/03/05 02:39:20;;;;;;;74.13;33.05;;;8.00;99.90;;;;;;5028927;28;20195;-49
2024/03/05 02:41:46;;;;;;;74.03;32.17;;;8.00;99.90;;;;;;5026684;28;20281;-45
2024/03/05 02:44:13;;;;;;;81.45;34.28;;;8.00;99.90;;;;;;5029678;28;20418;-45
2024/03/05 02:46:40;;;;;;;79.63;33.97;;;8.00;99.90;;;;;;5028180;28;20105;-50
2024/03/05 02:49:08;;;;;;;78.18;34.53;;;8.00;99.90;;;;;;5028742;28;20049;-50
2024/03/05 02:51:35;;;;;;;77.80;32.78;;;7.90;99.90;;;;;;5028345;28;20490;-48
2024/03/05 02:54:03;;;;;;;77.50;33.72;;;7.90;99.90;;;;;;5021615;28;20122;-46
2024/03/05 02:56:30;;;;;;;76.88;33.80;;;7.90;99.90;;;;;;5029611;28;20110;-49
2024/03/05 02:58:56;;;;;;;77.65;33.88;;;7.90;99.90;;;;;;5027838;28;20411;-47
2024/03/05 03:01:24;;;;;;;78.18;33.15;;;7.90;99.90;;;;;;5027112;28;20041;-48
2024/03/05 03:03:51;;;;;;;73.43;32.45;;;7.90;99.90;;;;;;5034245;28;20095;-48
2024/03/05 03:06:19;;;;;;;80.93;33.85;;;7.90;99.90;;;;;;5028225;28;20045;-51
2024/03/05 03:08:45;;;;;;;74.13;33.08;;;7.80;99.90;;;;;;5027419;28;20783;-49
2024/03/05 03:11:15;;;;;;;71.15;32.53;;;7.80;99.90;;;;;;5027145;28;20041;-52
2024/03/05 03:13:44;;;;;;;69.85;31.35;;;7.90;99.90;;;;;;5027031;28;20561;-47
2024/03/05 03:16:11;;;;;;;71.57;30.55;;;7.80;99.90;;;;;;5031182;28;20046;-47
2024/03/05 03:18:38;;;;;;;72.00;31.63;;;7.90;99.90;;;;;;5025913;28;20043;-51
2024/03/05 03:21:05;;;;;;;72.20;31.13;;;7.90;99.90;;;;;;5025180;28;20284;-48
2024/03/05 03:23:31;;;;;;;73.15;32.80;;;7.90;99.90;;;;;;5027743;28;20494;-52
2024/03/05 03:25:58;;;;;;;75.15;31.23;;;7.90;99.90;;;;;;5027220;28;20103;-49
2024/03/05 03:28:25;;;;;;;69.72;30.45;;;7.90;99.90;;;;;;5024151;28;20124;-49
2024/03/05 03:30:55;;;;;;;69.65;30.33;;;7.90;99.90;;;;;;5023399;28;20042;-50
2024/03/05 03:33:22;;;;;;;75.60;32.67;;;7.90;99.90;;;;;;5025680;28;20064;-54
2024/03/05 03:35:52;;;;;;;77.32;33.20;;;7.90;99.90;;;;;;5010259;28;20540;-48
2024/03/05 03:38:19;;;;;;;73.72;33.00;;;7.90;99.90;;;;;;5029146;28;20049;-50
2024/03/05 03:40:46;;;;;;;76.78;32.20;;;7.80;99.90;;;;;;5009563;28;20243;-49
2024/03/05 03:43:15;;;;;;;70.30;32.05;;;7.80;99.90;;;;;;5027323;28;20491;-52
2024/03/05 03:45:42;;;;;;;67.28;32.55;;;7.80;99.90;;;;;;5028261;28;20085;-51
2024/03/05 03:48:10;;;;;;;76.55;33.80;;;7.80;99.90;;;;;;5026413;28;20037;-49
2024/03/05 03:50:37;;;;;;;73.65;32.75;;;7.80;99.90;;;;;;5026958;28;20060;-48
2024/03/05 03:53:05;;;;;;;75.57;33.05;;;7.70;99.90;;;;;;5028657;28;20128;-54
2024/03/05 03:55:33;;;;;;;72.13;32.58;;;7.80;99.90;;;;;;5029256;28;20056;-50
2024/03/05 03:58:00;;;;;;;79.22;33.50;;;7.80;99.90;;;;;;5026832;28;20080;-43
2024/03/05 04:00:29;;;;;;;76.15;31.88;;;7.80;99.90;;;;;;5028202;28;20092;-50
2024/03/05 04:02:56;;;;;;;73.00;33.42;;;7.80;99.90;;;;;;5028382;28;20117;-48
2024/03/05 04:05:23;;;;;;;73.40;33.22;;;7.80;99.90;;;;;;5027948;28;20045;-48
2024/03/05 04:07:50;;;;;;;69.72;31.40;;;7.80;99.90;;;;;;5027463;28;20060;-48
2024/03/05 04:10:18;;;;;;;73.25;30.20;;;7.80;99.90;;;;;;5028365;28;20042;-48
2024/03/05 04:12:44;;;;;;;76.03;31.83;;;7.80;99.90;;;;;;5027966;28;20407;-45
2024/03/05 04:15:12;;;;;;;76.85;32.75;;;7.80;99.90;;;;;;5029765;28;20044;-48
2024/03/05 04:17:39;;;;;;;70.93;29.90;;;7.80;99.90;;;;;;5026534;28;20033;-53
2024/03/05 04:20:08;;;;;;;70.75;31.08;;;7.80;99.90;;;;;;5027212;28;20042;-47
2024/03/05 04:22:39;;;;;;;67.28;31.70;;;7.70;99.90;;;;;;5025669;28;20659;-51
2024/03/05 04:25:07;;;;;;;67.28;30.80;;;7.80;99.90;;;;;;5023776;28;20387;-52
2024/03/05 04:27:41;;;;;;;72.03;31.48;;;7.80;99.90;;;;;;5024843;28;20072;-49
2024/03/05 04:30:10;;;;;;;73.40;31.50;;;7.80;99.90;;;;;;5028044;28;20218;-50
2024/03/05 04:32:40;;;;;;;69.32;30.25;;;7.80;99.90;;;;;;5026775;28;20049;-47
2024/03/05 04:35:11;;;;;;;74.78;31.23;;;7.80;99.90;;;;;;5026456;28;20641;-52
2024/03/05 04:37:39;;;;;;;66.80;30.67;;;7.70;99.90;;;;;;5027090;28;20048;-50
2024/03/05 04:40:10;;;;;;;72.20;30.42;;;7.70;99.90;;;;;;5027905;28;20418;-47
2024/03/05 04:42:37;;;;;;;73.97;31.23;;;7.80;99.90;;;;;;5025067;28;20050;-53
2024/03/05 04:45:04;;;;;;;68.72;30.02;;;7.80;99.90;;;;;;5028856;28;20060;-52
2024/03/05 04:47:31;;;;;;;75.18;32.08;;;7.70;99.90;;;;;;5026093;28;20041;-45
2024/03/05 04:50:00;;;;;;;71.47;30.98;;;7.80;99.90;;;;;;5026576;28;20128;-48
2024/03/05 04:52:27;;;;;;;70.28;29.88;;;7.70;99.90;;;;;;5027408;28;20041;-47
2024/03/05 04:54:58;;;;;;;71.50;29.67;;;7.70;99.90;;;;;;5029914;28;20132;-50
2024/03/05 04:57:25;;;;;;;68.28;31.58;;;7.70;99.90;;;;;;5031808;28;20441;-50
2024/03/05 04:59:52;;;;;;;68.18;30.13;;;7.70;99.90;;;;;;5029021;28;20578;-50
2024/03/05 05:02:19;;;;;;;70.78;30.75;;;7.70;99.90;;;;;;5027689;28;20137;-48
2024/03/05 05:04:47;;;;;;;73.03;31.75;;;7.70;99.90;;;;;;5027671;28;20053;-49
2024/03/05 05:07:16;;;;;;;75.18;31.70;;;7.70;99.90;;;;;;5027384;28;20593;-50
2024/03/05 05:09:44;;;;;;;70.20;31.25;;;7.70;99.90;;;;;;5023485;28;20053;-51
2024/03/05 05:12:11;;;;;;;74.40;31.65;;;7.70;99.90;;;;;;5028587;28;20463;-46
2024/03/05 05:14:38;;;;;;;69.88;30.60;;;7.70;99.90;;;;;;5025030;28;20116;-46
2024/03/05 05:17:05;;;;;;;69.55;29.08;;;7.70;99.90;;;;;;5035911;28;20044;-51
2024/03/05 05:19:33;;;;;;;64.78;29.55;;;7.70;99.90;;;;;;5022589;28;20465;-53
2024/03/05 05:22:00;;;;;;;72.32;30.83;;;7.70;99.90;;;;;;5020924;28;20564;-50
2024/03/05 05:24:26;;;;;;;67.10;30.20;;;7.80;99.90;;;;;;5025008;28;20038;-46
2024/03/05 05:26:53;;;;;;;68.75;29.55;;;7.80;99.90;;;;;;5022277;28;20041;-51
2024/03/05 05:29:20;;;;;;;72.57;31.17;;;7.80;99.90;;;;;;5025648;28;20045;-46
2024/03/05 05:32:07;;;;;;;68.00;28.50;;;7.80;99.90;;;;;;5020283;28;20569;-50
2024/03/05 05:34:35;;;;;;;63.58;28.55;;;7.70;99.90;;;;;;5026144;28;20131;-50
2024/03/05 05:37:02;;;;;;;63.25;28.88;;;7.70;99.90;;;;;;5024679;28;20468;-46
2024/03/05 05:39:29;;;;;;;66.88;28.25;;;7.70;99.90;;;;;;5026151;28;20067;-46
2024/03/05 05:41:56;;;;;;;64.30;29.15;;;7.70;99.90;;;;;;5023911;28;20045;-55
2024/03/05 05:44:23;;;;;;;82.55;35.83;;;7.70;99.90;;;;;;5023379;28;20477;-49
2024/03/05 05:46:50;;;;;;;68.20;29.75;;;7.70;99.90;;;;;;5028194;28;20037;-49
2024/03/05 05:49:20;;;;;;;69.85;29.45;;;7.70;99.90;;;;;;5026830;28;20410;-46
2024/03/05 05:51:48;;;;;;;72.93;30.63;;;7.70;99.90;;;;;;5026044;28;20107;-56
2024/03/05 05:54:16;;;;;;;76.18;31.00;;;7.70;99.90;;;;;;5025765;28;20045;-47
2024/03/05 05:56:48;;;;;;;70.30;31.33;;;7.70;99.90;;;;;;5024073;28;20054;-51
2024/03/05 05:59:16;;;;;;;64.22;30.30;;;7.80;99.90;;;;;;5021478;28;20038;-46
2024/03/05 06:01:43;;;;;;;67.07;29.92;;;7.80;99.90;;;;;;5023048;28;20057;-48
2024/03/05 06:04:11;;;;;;;72.90;31.35;;;7.80;99.90;;;;;;5025525;28;20063;-53
2024/03/05 06:06:38;;;;;;;62.75;29.30;;;7.80;99.90;;;;;;5023292;28;20123;-53
2024/03/05 06:09:09;;;;;;;67.55;29.70;;;7.80;99.90;;;;;;5024987;28;20073;-48
2024/03/05 06:11:37;;;;;;;65.90;28.88;;;7.80;99.90;;;;;;5023616;28;20510;-49
2024/03/05 06:14:04;;;;;;;61.20;27.60;;;7.80;99.90;;;;;;5019452;28;20087;-52
2024/03/05 06:16:32;;;;;;;69.28;28.70;;;7.90;99.90;;;;;;5028280;28;20050;-53
2024/03/05 06:19:00;;;;;;;63.42;27.92;;;7.90;99.90;;;;;;5024105;28;20431;-49
2024/03/05 06:21:27;;;;;;;63.00;26.67;;;7.90;99.90;;;;;;5024208;28;20124;-50
2024/03/05 06:23:54;;;;;;;60.85;27.58;;;8.00;99.90;;;;;;5024600;28;20095;-51
2024/03/05 06:26:21;;;;;;;62.60;28.65;;;8.00;99.90;;;;;;5024691;28;20045;-47
2024/03/05 06:28:48;;;;;;;67.03;28.10;;;8.10;99.90;;;;;;5020542;28;20041;-49
2024/03/05 06:31:15;;;;;;;62.38;28.30;;;8.10;99.90;;;;;;5023717;28;20040;-51
2024/03/05 06:33:44;;;;;;;62.22;29.15;;;8.20;99.90;;;;;;5020019;28;20041;-50
2024/03/05 06:36:12;;;;;;;70.40;29.48;;;8.20;99.90;;;;;;5006507;28;20049;-50
2024/03/05 06:38:39;;;;;;;56.72;26.25;;;8.20;99.90;;;;;;5021845;28;20352;-50
2024/03/05 06:41:06;;;;;;;54.78;26.15;;;8.20;99.90;;;;;;5024686;28;20044;-51
2024/03/05 06:43:36;;;;;;;60.85;26.60;;;8.30;99.90;;;;;;5021068;28;20042;-49
2024/03/05 06:46:04;;;;;;;56.10;27.08;;;8.30;99.90;;;;;;5021243;28;20111;-51
2024/03/05 06:48:32;;;;;;;59.35;27.25;;;8.30;99.90;;;;;;5025113;28;20455;-47
2024/03/05 06:51:03;;;;;;;57.30;26.88;;;8.30;99.90;;;;;;5023703;28;20118;-48
2024/03/05 06:59:04;;;;;;;55.03;25.77;;;8.50;99.90;;;;;;5024530;28;20057;-50
2024/03/05 07:01:32;;;;;;;53.15;26.02;;;8.60;99.90;;;;;;5023166;28;20132;-49
2024/03/05 07:04:01;;;;;;;59.35;26.50;;;8.60;99.90;;;;;;5024155;28;20462;-50
2024/03/05 07:06:28;;;;;;;61.10;25.25;;;8.70;99.90;;;;;;5023859;28;20497;-52
2024/03/05 07:08:56;;;;;;;59.78;26.77;;;8.70;99.90;;;;;;5022072;28;20042;-50
2024/03/05 07:11:25;;;;;;;52.28;25.00;;;8.80;99.90;;;;;;5026749;28;20407;-50
2024/03/05 07:13:53;;;;;;;52.40;25.65;;;8.90;99.90;;;;;;5025154;28;20063;-52
2024/03/05 07:16:23;;;;;;;52.00;25.48;;;8.90;99.90;;;;;;5026919;28;20041;-50
2024/03/05 07:18:53;;;;;;;59.55;25.02;;;9.00;99.90;;;;;;5022991;28;20536;-53
2024/03/05 07:21:22;;;;;;;45.15;21.35;;;9.20;99.90;;;;;;5022997;28;20462;-49
2024/03/05 07:23:52;;;;;;;50.17;24.17;;;9.20;99.90;;;;;;5022393;28;20490;-47
2024/03/05 07:26:22;;;;;;;48.45;23.80;;;9.30;99.90;;;;;;5026902;28;20043;-47
2024/03/05 07:28:49;;;;;;;46.13;22.63;;;9.40;99.90;;;;;;5026863;28;20180;-46
2024/03/05 07:31:16;;;;;;;44.45;22.25;;;9.50;99.90;;;;;;5025751;28;20089;-47
2024/03/05 07:33:47;;;;;;;50.30;24.20;;;9.50;99.90;;;;;;5021541;28;20053;-49
2024/03/05 07:36:19;;;;;;;50.55;23.75;;;9.60;99.90;;;;;;5028882;28;20551;-53
2024/03/05 07:38:46;;;;;;;50.58;23.13;;;9.70;99.90;;;;;;5026905;28;20159;-50
2024/03/05 07:41:13;;;;;;;46.22;23.13;;;9.70;99.90;;;;;;5026613;28;20358;-50
2024/03/05 07:43:55;;;;;;;45.40;21.50;;;9.80;99.90;;;;;;5026518;28;20038;-53
2024/03/05 07:46:22;;;;;;;40.22;20.50;;;9.90;99.90;;;;;;5028429;28;20103;-51
2024/03/05 07:48:49;;;;;;;42.60;22.52;;;10.00;99.90;;;;;;5026694;28;20099;-49
2024/03/05 07:51:16;;;;;;;44.35;23.08;;;10.10;99.90;;;;;;5026762;28;20041;-49
2024/03/05 07:53:53;;;;;;;48.70;24.80;;;10.20;99.90;;;;;;5027423;28;20354;-51
2024/03/05 07:56:20;;;;;;;45.03;22.58;;;10.30;99.90;;;;;;5027091;28;20145;-48
2024/03/05 07:58:47;;;;;;;44.08;22.50;;;10.30;99.90;;;;;;5026799;28;20434;-46
2024/03/05 08:01:14;;;;;;;57.78;27.92;;;10.50;99.90;;;;;;5027791;28;20042;-46
2024/03/05 08:03:41;;;;;;;44.88;22.30;;;10.70;99.90;;;;;;5027985;28;20060;-47
2024/03/05 08:06:08;;;;;;;44.10;21.05;;;10.70;99.90;;;;;;5026407;28;20049;-48
2024/03/05 08:08:35;;;;;;;38.95;20.10;;;10.80;99.90;;;;;;5026741;28;20521;-46
2024/03/05 08:11:02;;;;;;;39.90;21.42;;;11.00;99.90;;;;;;5025374;28;20037;-50
2024/03/05 08:13:33;;;;;;;39.22;20.05;;;11.00;99.90;;;;;;5023094;28;20060;-50
2024/03/05 08:16:04;;;;;;;36.20;18.95;;;11.10;99.90;;;;;;5026479;28;20045;-51
2024/03/05 08:18:31;;;;;;;37.65;17.73;;;11.10;99.90;;;;;;5026803;28;20540;-50
2024/03/05 08:21:01;;;;;;;32.13;15.43;;;11.20;99.90;;;;;;5025373;28;20085;-49
2024/03/05 08:23:28;;;;;;;33.17;16.13;;;11.20;99.90;;;;;;5007319;28;20068;-49
2024/03/05 08:25:55;;;;;;;30.95;15.82;;;11.30;99.90;;;;;;5026882;28;20068;-50
2024/03/05 08:28:24;;;;;;;33.30;16.27;;;11.30;99.90;;;;;;5023380;28;20037;-45
2024/03/05 08:30:53;;;;;;;30.92;15.40;;;11.40;99.90;;;;;;5026008;28;20523;-52
2024/03/05 08:33:21;;;;;;;29.20;14.60;;;11.30;99.90;;;;;;5027295;28;20139;-48
2024/03/05 08:35:48;;;;;;;31.83;16.08;;;11.30;99.90;;;;;;5025542;28;20049;-48
2024/03/05 08:38:15;;;;;;;28.70;15.55;;;11.30;99.90;;;;;;5028837;28;20076;-54
2024/03/05 08:40:41;;;;;;;31.25;16.52;;;11.10;99.90;;;;;;5008725;28;20041;-47
2024/03/05 08:43:09;;;;;;;29.58;15.75;;;11.30;99.90;;;;;;5027945;28;20056;-50
2024/03/05 08:45:37;;;;;;;33.58;15.82;;;11.40;99.90;;;;;;5028409;28;20041;-50
2024/03/05 08:48:04;;;;;;;26.50;15.73;;;11.60;99.90;;;;;;5026262;28;20261;-51
2024/03/05 08:50:31;;;;;;;29.05;16.48;;;11.70;99.90;;;;;;5026092;28;20042;-50
2024/03/05 08:52:57;;;;;;;34.47;19.52;;;11.80;99.90;;;;;;5025581;28;20136;-46
2024/03/05 08:55:25;;;;;;;30.17;16.35;;;12.00;99.90;;;;;;5028153;28;20048;-52
2024/03/05 08:57:53;;;;;;;27.83;14.95;;;12.20;99.90;;;;;;5026512;28;20133;-48
2024/03/05 09:00:20;;;;;;;31.02;16.15;;;12.40;99.90;;;;;;5026830;28;20410;-47
2024/03/05 09:03:08;;;;;;;28.52;16.35;;;12.50;99.90;;;;;;5026466;28;20095;-48
2024/03/05 09:05:35;;;;;;;28.98;15.70;;;12.60;99.90;;;;;;5026775;28;20053;-49
2024/03/05 09:08:04;;;;;;;28.77;15.73;;;12.20;99.90;;;;;;5026416;28;20041;-53
2024/03/05 09:10:32;;;;;;;28.85;15.60;;;11.80;99.90;;;;;;5028417;28;20394;-49
2024/03/05 09:12:59;;;;;;;29.95;15.82;;;11.70;99.90;;;;;;5026851;28;20049;-48
2024/03/05 09:15:26;;;;;;;31.30;16.50;;;11.50;99.90;;;;;;5026257;28;20119;-50
2024/03/05 09:17:53;;;;;;;30.85;14.77;;;11.30;99.90;;;;;;5025553;28;20052;-49
2024/03/05 09:20:20;;;;;;;30.52;16.17;;;11.10;99.90;;;;;;5026369;28;20483;-47
2024/03/05 09:22:47;;;;;;;35.25;16.83;;;10.90;99.90;;;;;;5025475;28;20160;-46
2024/03/05 09:25:15;;;;;;;32.83;16.10;;;10.80;99.90;;;;;;5027269;28;20052;-50
2024/03/05 09:27:44;;;;;;;32.22;16.27;;;10.80;99.90;;;;;;5022419;28;20044;-54
2024/03/05 09:30:14;;;;;;;27.83;15.75;;;10.90;99.90;;;;;;5026482;28;20044;-45
2024/03/05 09:32:43;;;;;;;25.80;13.77;;;11.10;99.90;;;;;;5024499;28;20123;-51
2024/03/05 09:35:12;;;;;;;30.42;14.43;;;11.10;99.90;;;;;;5026588;28;20150;-48
2024/03/05 09:37:41;;;;;;;26.08;14.52;;;10.70;99.90;;;;;;5024701;28;20581;-49
2024/03/05 09:40:16;;;;;;;28.40;13.52;;;10.70;99.90;;;;;;5026137;28;20045;-46
2024/03/05 09:42:45;;;;;;;30.90;15.07;;;10.90;99.90;;;;;;5023075;28;20103;-53
2024/03/05 09:45:16;;;;;;;28.73;15.07;;;11.20;99.90;;;;;;5025801;28;20494;-47
2024/03/05 09:47:46;;;;;;;28.20;15.85;;;11.50;99.90;;;;;;5024628;28;20152;-52
2024/03/05 09:50:16;;;;;;;28.50;15.20;;;11.70;99.90;;;;;;5025726;28;20048;-46
2024/03/05 09:52:46;;;;;;;25.38;14.13;;;11.70;99.90;;;;;;5025371;28;20078;-50
2024/03/05 09:55:15;;;;;;;25.88;13.65;;;11.80;99.90;;;;;;5026346;28;20041;-51
2024/03/05 09:57:48;;;;;;;24.23;13.20;;;11.80;99.90;;;;;;5025150;28;20128;-51
2024/03/05 10:00:19;;;;;;;25.65;13.75;;;12.10;99.90;;;;;;5023136;28;20037;-51
2024/03/05 10:02:50;;;;;;;21.63;11.18;;;12.50;99.90;;;;;;5024219;28;20050;-52
2024/03/05 10:05:19;;;;;;;21.48;13.02;;;12.70;99.90;;;;;;5025883;28;20067;-51
2024/03/05 10:07:47;;;;;;;18.35;11.48;;;12.70;99.90;;;;;;5025963;28;20053;-49
2024/03/05 10:10:21;;;;;;;20.08;11.05;;;12.70;99.90;;;;;;5027955;28;20048;-50
2024/03/05 10:12:52;;;;;;;24.25;13.73;;;12.30;99.90;;;;;;5025197;28;20053;-49
2024/03/05 10:15:24;;;;;;;24.10;13.45;;;12.00;99.90;;;;;;5023048;28;20541;-52
2024/03/05 10:17:53;;;;;;;22.77;13.32;;;12.10;99.90;;;;;;5026526;28;20088;-52
2024/03/05 10:20:27;;;;;;;22.33;11.85;;;12.00;99.90;;;;;;5027669;28;20083;-53
2024/03/05 10:22:57;;;;;;;23.02;13.30;;;12.10;99.90;;;;;;5026221;28;20279;-49
2024/03/05 10:25:26;;;;;;;20.73;12.30;;;12.40;99.90;;;;;;5026868;28;20049;-52
2024/03/05 10:27:54;;;;;;;21.63;12.73;;;12.60;99.90;;;;;;5021121;28;20072;-51
2024/03/05 10:30:31;;;;;;;20.30;11.73;;;12.50;99.90;;;;;;5025391;28;20143;-49
2024/03/05 10:33:01;;;;;;;19.75;11.38;;;12.30;99.90;;;;;;5025033;28;20045;-50
2024/03/05 10:35:29;;;;;;;18.52;11.43;;;12.50;99.90;;;;;;5025504;28;20053;-51
2024/03/05 10:38:07;;;;;;;21.52;12.77;;;12.60;99.90;;;;;;5027021;28;20122;-49
2024/03/05 10:40:35;;;;;;;21.83;12.80;;;12.60;99.90;;;;;;5025290;28;20478;-53
2024/03/05 10:43:07;;;;;;;22.83;12.88;;;12.30;99.90;;;;;;5026501;28;20107;-49
2024/03/05 10:45:39;;;;;;;23.92;12.43;;;12.30;99.90;;;;;;5025923;28;20054;-55
2024/03/05 10:48:09;;;;;;;19.83;11.95;;;12.30;99.90;;;;;;5026948;28;20155;-49
2024/03/05 10:50:39;;;;;;;21.88;12.88;;;12.30;99.90;;;;;;5024881;28;20042;-48
2024/03/05 10:53:08;;;;;;;18.95;11.98;;;12.40;99.90;;;;;;5024240;28;20053;-52
2024/03/05 10:55:36;;;;;;;23.10;12.43;;;12.60;99.90;;;;;;5025502;28;20077;-52
2024/03/05 10:58:13;;;;;;;20.63;12.75;;;12.70;99.90;;;;;;5024727;28;20059;-50
2024/03/05 11:00:43;;;;;;;21.52;12.40;;;12.90;99.90;;;;;;5028776;28;20084;-49
2024/03/05 11:03:12;;;;;;;20.08;12.43;;;12.90;99.90;;;;;;5028412;28;20045;-51
2024/03/05 11:05:50;;;;;;;21.13;11.13;;;12.80;99.90;;;;;;5029829;28;20107;-50
2024/03/05 11:08:19;;;;;;;21.83;11.02;;;12.90;99.90;;;;;;5021959;28;20155;-54
2024/03/05 11:10:51;;;;;;;20.60;12.38;;;12.80;99.90;;;;;;5027956;28;20088;-52
2024/03/05 11:13:19;;;;;;;19.45;11.10;;;13.00;99.90;;;;;;5026473;28;20085;-48
2024/03/05 11:15:49;;;;;;;20.17;10.93;;;13.00;99.90;;;;;;5024400;28;20132;-49
2024/03/05 11:18:31;;;;;;;20.92;12.18;;;12.90;99.90;;;;;;5027447;28;20646;-50
2024/03/05 11:21:01;;;;;;;;;;;13.10;99.90;;;;;;5028423;28;20080;-51
2024/03/05 11:23:29;;;;;;;19.60;11.15;;;12.90;99.90;;;;;;5028219;28;19921;-46
2024/03/05 11:26:04;;;;;;;21.23;11.18;;;12.60;99.90;;;;;;5027607;28;20098;-46
2024/03/05 11:28:33;;;;;;;19.85;11.43;;;12.30;99.90;;;;;;5026211;28;20049;-48
2024/03/05 11:31:19;;;;;;;21.65;11.90;;;12.00;99.90;;;;;;5027228;28;20130;-49
2024/03/05 11:34:12;;;;;;;19.25;11.32;;;11.70;99.90;;;;;;5029190;28;20055;-48
2024/03/05 11:36:39;;;;;;;20.23;10.82;;;11.40;99.90;;;;;;5028409;28;20045;-49
2024/03/05 11:39:20;;;;;;;20.05;10.90;;;11.30;99.90;;;;;;5023991;28;20193;-53
2024/03/05 11:41:47;;;;;;;16.40;10.30;;;11.20;99.90;;;;;;5027831;28;20073;-51
2024/03/05 11:44:35;;;;;;;19.83;10.77;;;11.00;99.90;;;;;;5030706;28;20041;-51
2024/03/05 11:47:03;;;;;;;18.02;10.63;;;11.10;99.90;;;;;;5028763;28;20037;-50
2024/03/05 11:49:31;;;;;;;17.05;10.38;;;11.30;99.90;;;;;;5028074;28;20037;-48
2024/03/05 11:51:58;;;;;;;21.08;10.77;;;11.70;99.90;;;;;;5026350;28;20087;-50
2024/03/05 11:54:25;;;;;;;21.25;11.10;;;12.10;99.90;;;;;;5030019;28;20103;-51
2024/03/05 11:56:57;;;;;;;21.92;12.65;;;12.50;99.90;;;;;;5026634;28;20704;-47
2024/03/05 11:59:37;;;;;;;;;;;12.90;99.90;;;;;;5028523;28;20414;-52
2024/03/05 12:02:11;;;;;;;21.20;10.23;;;13.30;99.90;;;;;;5026955;28;19932;-52
2024/03/05 12:04:39;;;;;;;16.20;9.90;;;13.80;99.90;;;;;;5026223;28;20168;-50
2024/03/05 12:07:09;;;;;;;18.42;11.15;;;13.80;99.90;;;;;;5028444;28;20049;-47
2024/03/05 12:09:40;;;;;;;17.40;10.95;;;13.90;99.90;;;;;;5027954;28;20045;-53
2024/03/05 12:12:13;;;;;;;19.27;11.25;;;14.10;99.90;;;;;;5023786;28;20073;-54
2024/03/05 12:14:50;;;;;;;15.98;10.50;;;13.90;99.90;;;;;;5027883;28;20049;-53
2024/03/05 12:17:18;;;;;;;18.17;11.02;;;13.60;99.90;;;;;;5026845;28;20103;-52
2024/03/05 12:19:55;;;;;;;18.20;10.75;;;13.40;99.90;;;;;;5024852;28;20490;-53
2024/03/05 12:22:22;;;;;;;18.67;11.23;;;13.40;99.90;;;;;;5026776;28;20103;-53
2024/03/05 12:24:50;;;;;;;17.58;10.38;;;13.30;99.90;;;;;;5030074;28;20073;-52
2024/03/05 12:27:17;;;;;;;15.95;10.07;;;13.50;99.90;;;;;;5025702;28;20483;-46
2024/03/05 12:29:44;;;;;;;16.13;10.35;;;13.40;99.90;;;;;;5025414;28;20136;-47
2024/03/05 12:32:12;;;;;;;18.00;10.40;;;13.70;99.90;;;;;;5027474;28;20037;-51
2024/03/05 12:34:42;;;;;;;15.77;9.63;;;14.00;99.90;;;;;;5008117;28;20053;-47
2024/03/05 12:37:13;;;;;;;16.17;10.85;;;14.00;99.90;;;;;;5028301;28;20166;-49
2024/03/05 12:39:40;;;;;;;17.08;10.77;;;14.40;99.90;;;;;;5027143;28;20045;-48
2024/03/05 12:42:13;;;;;;;15.13;10.30;;;14.70;99.90;;;;;;5026981;28;20123;-47
2024/03/05 12:44:41;;;;;;;18.40;10.75;;;14.60;99.90;;;;;;5026727;28;20395;-50
2024/03/05 12:47:12;;;;;;;17.63;10.90;;;14.30;99.90;;;;;;5028101;28;20084;-53